Time;durP1;ratioP1;P1;durP2;ratioP2;P2;SDS_P1;SDS_P2;PMS_P1;PMS_P2;Temp;Humidity;BMP_temperature;BMP_pressure;BME280_temperature;BME280_humidity;BME280_pressure;Samples;Min_cycle;Max_cycle;Signal;HPM_P1;HPM_P2
2022/10/28 00:01:09;;;;;;;12.68;5.93;;;14.60;99.90;;;;;;5036322;28;20176;-61
2022/10/28 00:03:43;;;;;;;8.90;4.90;;;14.50;99.90;;;;;;5036210;28;20489;-60
2022/10/28 00:06:17;;;;;;;9.38;5.38;;;14.50;99.90;;;;;;5034775;28;20178;-60
2022/10/28 00:08:43;;;;;;;9.07;6.35;;;14.50;99.90;;;;;;5035139;28;20124;-68
2022/10/28 00:11:21;;;;;;;9.75;5.35;;;14.40;99.90;;;;;;5036592;28;20104;-66
2022/10/28 00:13:47;;;;;;;8.15;5.25;;;14.40;99.90;;;;;;5036208;28;20061;-64
2022/10/28 00:16:19;;;;;;;8.23;5.00;;;14.30;99.90;;;;;;5034445;28;20120;-64
2022/10/28 00:18:45;;;;;;;8.60;4.97;;;14.30;99.90;;;;;;5035921;28;20025;-65
2022/10/28 00:21:22;;;;;;;9.20;5.22;;;14.20;99.90;;;;;;5035812;28;20057;-63
2022/10/28 00:23:48;;;;;;;7.75;4.82;;;14.20;99.90;;;;;;5036699;28;20029;-65
2022/10/28 00:26:19;;;;;;;10.23;5.68;;;14.10;99.90;;;;;;5034720;28;20363;-65
2022/10/28 00:28:53;;;;;;;;;;;14.10;99.90;;;;;;5037246;28;20443;-67
2022/10/28 00:31:21;;;;;;;9.50;5.35;;;14.10;99.90;;;;;;5036580;28;19909;-60
2022/10/28 00:33:47;;;;;;;10.35;5.50;;;14.00;99.90;;;;;;5035751;28;20035;-60
2022/10/28 00:36:25;;;;;;;10.73;5.50;;;14.00;99.90;;;;;;5036088;28;20079;-62
2022/10/28 00:38:53;;;;;;;9.90;6.07;;;14.00;99.90;;;;;;5036532;28;20381;-60
2022/10/28 00:41:23;;;;;;;11.98;6.05;;;14.00;99.90;;;;;;5035634;28;20025;-61
2022/10/28 00:43:52;;;;;;;13.00;5.83;;;14.00;99.90;;;;;;5036327;28;20381;-60
2022/10/28 00:46:44;;;;;;;9.18;5.90;;;14.00;99.90;;;;;;5035877;28;20068;-60
2022/10/28 00:49:27;;;;;;;9.57;5.68;;;14.00;99.90;;;;;;5035355;28;20518;-60
2022/10/28 00:51:58;;;;;;;8.52;5.20;;;13.90;99.90;;;;;;5036470;28;20047;-60
2022/10/28 00:54:24;;;;;;;9.30;5.38;;;13.90;99.90;;;;;;5035275;28;20026;-60
2022/10/28 00:56:53;;;;;;;10.30;5.15;;;13.90;99.90;;;;;;5036455;28;20485;-60
2022/10/28 00:59:24;;;;;;;8.68;5.38;;;13.90;99.90;;;;;;5035697;28;20030;-62
2022/10/28 01:01:50;;;;;;;;;;;13.90;99.90;;;;;;5035329;28;20014;-63
2022/10/28 01:04:17;;;;;;;10.10;5.70;;;13.80;99.90;;;;;;5032501;28;20049;-60
2022/10/28 01:06:43;;;;;;;13.77;5.65;;;13.80;99.90;;;;;;5033521;28;20021;-58
2022/10/28 01:09:08;;;;;;;11.57;5.18;;;13.80;99.90;;;;;;5031101;28;20481;-61
2022/10/28 01:12:02;;;;;;;8.43;5.53;;;13.70;99.90;;;;;;5047894;28;20040;-60
2022/10/28 01:14:33;;;;;;;8.55;5.50;;;13.70;99.90;;;;;;5032331;28;20474;-59
2022/10/28 01:17:17;;;;;;;;;;;13.70;99.90;;;;;;5032487;28;20096;-60
2022/10/28 01:20:04;;;;;;;8.43;5.30;;;13.60;99.90;;;;;;5032787;28;19905;-60
2022/10/28 01:22:41;;;;;;;8.10;4.88;;;13.60;99.90;;;;;;5031716;28;20168;-61
2022/10/28 01:25:47;;;;;;;8.10;5.18;;;13.60;99.90;;;;;;5032519;28;20118;-60
2022/10/28 01:28:28;;;;;;;11.10;4.80;;;13.50;99.90;;;;;;5014209;28;20033;-60
2022/10/28 01:31:29;;;;;;;11.45;5.72;;;13.50;99.90;;;;;;5032063;28;20496;-60
2022/10/28 01:34:07;;;;;;;8.73;4.88;;;13.50;99.90;;;;;;5032620;28;20026;-61
2022/10/28 01:36:50;;;;;;;9.40;5.50;;;13.40;99.90;;;;;;5031734;28;20342;-60
2022/10/28 01:39:22;;;;;;;7.40;4.80;;;13.40;99.90;;;;;;5031990;28;20495;-60
2022/10/28 01:42:04;;;;;;;7.53;4.65;;;13.40;99.90;;;;;;5032580;28;20031;-60
2022/10/28 01:44:40;;;;;;;12.98;5.57;;;13.40;99.90;;;;;;5031399;28;20029;-63
2022/10/28 01:47:13;;;;;;;8.20;4.85;;;13.40;99.90;;;;;;5032208;28;20100;-60
2022/10/28 01:49:44;;;;;;;9.88;5.50;;;13.30;99.90;;;;;;5038304;28;20045;-60
2022/10/28 01:52:13;;;;;;;11.05;6.18;;;13.30;99.90;;;;;;5035796;28;20097;-60
2022/10/28 01:54:43;;;;;;;9.88;5.53;;;13.30;99.90;;;;;;5032622;28;20674;-63
2022/10/28 01:57:11;;;;;;;11.00;5.82;;;13.30;99.90;;;;;;5031942;28;20057;-63
2022/10/28 01:59:38;;;;;;;8.57;5.55;;;13.30;99.90;;;;;;5031722;28;20029;-60
2022/10/28 02:02:04;;;;;;;10.02;5.53;;;13.30;99.90;;;;;;5031873;28;20034;-60
2022/10/28 02:04:29;;;;;;;9.40;5.45;;;13.30;99.90;;;;;;5031353;28;20097;-61
2022/10/28 02:06:58;;;;;;;10.48;4.95;;;13.20;99.90;;;;;;5032078;28;20390;-61
2022/10/28 02:09:39;;;;;;;8.27;4.68;;;13.20;99.90;;;;;;5031384;28;20030;-62
2022/10/28 02:12:05;;;;;;;9.75;4.78;;;13.20;99.90;;;;;;5031209;28;20108;-62
2022/10/28 02:15:07;;;;;;;6.32;3.97;;;13.10;99.90;;;;;;5030431;28;20223;-60
2022/10/28 02:17:51;;;;;;;6.90;4.38;;;13.10;99.90;;;;;;5031140;28;20032;-63
2022/10/28 02:20:42;;;;;;;7.90;3.92;;;13.10;99.90;;;;;;5030686;28;20029;-60
2022/10/28 02:23:44;;;;;;;6.60;4.82;;;13.10;99.90;;;;;;5032052;28;20032;-61
2022/10/28 02:26:19;;;;;;;;;;;13.00;99.90;;;;;;5019779;28;20398;-66
2022/10/28 02:29:18;;;;;;;9.05;4.80;;;13.00;99.90;;;;;;5031459;28;19909;-66
2022/10/28 02:31:44;;;;;;;9.60;5.43;;;12.90;99.90;;;;;;5027552;28;20049;-67
2022/10/28 02:34:14;;;;;;;11.45;5.15;;;12.90;99.90;;;;;;5031138;28;20081;-67
2022/10/28 02:36:46;;;;;;;10.98;5.60;;;12.90;99.90;;;;;;5031747;28;20036;-67
2022/10/28 02:39:15;;;;;;;8.38;4.90;;;12.90;99.90;;;;;;5031089;28;20024;-61
2022/10/28 02:42:23;;;;;;;15.25;8.00;;;12.90;99.90;;;;;;5030900;28;20113;-62
2022/10/28 02:44:53;;;;;;;13.52;6.82;;;12.90;99.90;;;;;;5026171;28;20041;-60
2022/10/28 02:47:24;;;;;;;16.00;8.27;;;13.00;99.90;;;;;;5029995;28;20021;-61
2022/10/28 02:49:56;;;;;;;26.63;11.80;;;13.00;99.90;;;;;;5031191;28;20532;-62
2022/10/28 02:52:23;;;;;;;16.08;10.00;;;13.10;99.90;;;;;;5030568;28;20021;-60
2022/10/28 02:54:58;;;;;;;21.33;11.95;;;13.10;99.90;;;;;;5030413;28;20465;-61
2022/10/28 02:57:27;;;;;;;26.23;14.15;;;13.10;99.90;;;;;;5030226;28;20029;-60
2022/10/28 02:59:58;;;;;;;20.88;12.98;;;13.20;99.90;;;;;;5031023;28;20017;-64
2022/10/28 03:02:24;;;;;;;23.67;11.88;;;13.20;99.90;;;;;;5029496;28;20086;-61
2022/10/28 03:04:50;;;;;;;20.13;10.85;;;13.20;99.90;;;;;;5030878;28;20032;-60
2022/10/28 03:07:15;;;;;;;20.67;10.85;;;13.20;99.90;;;;;;5030516;28;20144;-64
2022/10/28 03:09:41;;;;;;;20.45;10.57;;;13.20;99.90;;;;;;5030024;28;20363;-60
2022/10/28 03:12:07;;;;;;;21.50;11.77;;;13.20;99.90;;;;;;5030832;28;20120;-61
2022/10/28 03:14:32;;;;;;;20.90;11.60;;;13.20;99.90;;;;;;5029865;28;20069;-60
2022/10/28 03:16:58;;;;;;;22.40;13.05;;;13.20;99.90;;;;;;5030119;28;20021;-60
2022/10/28 03:19:23;;;;;;;32.58;16.65;;;13.20;99.90;;;;;;5029890;28;20539;-60
2022/10/28 03:21:49;;;;;;;32.53;17.17;;;13.20;99.90;;;;;;5029982;28;20026;-61
2022/10/28 03:24:15;;;;;;;30.80;16.90;;;13.20;99.90;;;;;;5029850;28;20188;-61
2022/10/28 03:26:40;;;;;;;34.13;18.27;;;13.30;99.90;;;;;;5045578;28;20116;-64
2022/10/28 03:29:06;;;;;;;29.60;16.92;;;13.30;99.90;;;;;;5029754;28;20044;-61
2022/10/28 03:31:32;;;;;;;29.00;16.58;;;13.30;99.90;;;;;;5030042;28;20046;-60
2022/10/28 03:33:57;;;;;;;20.65;11.13;;;13.20;99.90;;;;;;5028729;28;20026;-60
2022/10/28 03:36:23;;;;;;;15.30;9.25;;;13.20;99.90;;;;;;5029178;28;20764;-60
2022/10/28 03:38:48;;;;;;;18.25;9.13;;;13.20;99.90;;;;;;5030786;28;20419;-61
2022/10/28 03:41:14;;;;;;;14.30;8.52;;;13.20;99.90;;;;;;5029368;28;20390;-60
2022/10/28 03:43:40;;;;;;;12.10;7.07;;;13.10;99.90;;;;;;5030689;28;20071;-63
2022/10/28 03:46:05;;;;;;;12.40;7.03;;;13.10;99.90;;;;;;5030178;28;20103;-61
2022/10/28 03:48:31;;;;;;;10.02;5.97;;;13.10;99.90;;;;;;5029378;28;20410;-60
2022/10/28 03:50:57;;;;;;;11.68;5.95;;;13.00;99.90;;;;;;5030075;28;20034;-61
2022/10/28 03:53:22;;;;;;;11.07;5.72;;;13.00;99.90;;;;;;5029901;28;20037;-60
2022/10/28 03:55:55;;;;;;;9.00;5.30;;;13.00;99.90;;;;;;5038706;28;20388;-60
2022/10/28 03:58:21;;;;;;;11.65;5.70;;;12.90;99.90;;;;;;5031452;28;20036;-60
2022/10/28 04:00:48;;;;;;;10.38;6.20;;;12.90;99.90;;;;;;5030747;28;20021;-60
2022/10/28 04:03:14;;;;;;;10.98;6.03;;;12.90;99.90;;;;;;5029199;28;20022;-61
2022/10/28 04:05:40;;;;;;;11.00;5.70;;;12.90;99.90;;;;;;5030624;28;20021;-60
2022/10/28 04:08:06;;;;;;;8.93;5.30;;;12.90;99.90;;;;;;5030042;28;20025;-61
2022/10/28 04:10:31;;;;;;;11.98;5.57;;;12.80;99.90;;;;;;5029449;28;20049;-60
2022/10/28 04:13:01;;;;;;;9.52;5.18;;;12.80;99.90;;;;;;5030385;28;20022;-60
2022/10/28 04:15:27;;;;;;;11.98;5.10;;;12.80;99.90;;;;;;5029599;28;20061;-60
2022/10/28 04:17:52;;;;;;;9.20;5.20;;;12.80;99.90;;;;;;5029699;28;20060;-62
2022/10/28 04:20:18;;;;;;;10.20;5.53;;;12.80;99.90;;;;;;5029615;28;20021;-60
2022/10/28 04:22:43;;;;;;;10.65;5.72;;;12.80;99.90;;;;;;5030078;28;20018;-61
2022/10/28 04:25:09;;;;;;;8.77;5.60;;;12.80;99.90;;;;;;5026023;28;20026;-64
2022/10/28 04:27:35;;;;;;;9.50;6.30;;;12.70;99.90;;;;;;5028898;28;20052;-61
2022/10/28 04:30:01;;;;;;;10.25;6.47;;;12.70;99.90;;;;;;5027957;28;20327;-62
2022/10/28 04:32:27;;;;;;;12.02;5.60;;;12.70;99.90;;;;;;5027836;28;20087;-65
2022/10/28 04:34:52;;;;;;;8.38;5.25;;;12.70;99.90;;;;;;5026497;28;20421;-60
2022/10/28 04:37:18;;;;;;;9.32;5.40;;;12.70;99.90;;;;;;5028761;28;20052;-60
2022/10/28 04:39:44;;;;;;;9.90;5.00;;;12.70;99.90;;;;;;5033582;28;20552;-60
2022/10/28 04:42:09;;;;;;;8.00;4.65;;;12.70;99.90;;;;;;5033280;28;20120;-67
2022/10/28 04:44:35;;;;;;;7.15;4.13;;;12.70;99.90;;;;;;5033202;28;20032;-61
2022/10/28 04:47:00;;;;;;;9.20;4.60;;;12.70;99.90;;;;;;5033510;28;20025;-61
2022/10/28 04:49:26;;;;;;;8.07;4.38;;;12.70;99.90;;;;;;5032965;28;20393;-60
2022/10/28 04:51:51;;;;;;;7.60;4.22;;;12.70;99.90;;;;;;5033001;28;20032;-60
2022/10/28 04:54:17;;;;;;;6.25;3.65;;;12.70;99.90;;;;;;5032930;28;20496;-61
2022/10/28 04:56:43;;;;;;;8.15;4.38;;;12.60;99.90;;;;;;5033586;28;20476;-61
2022/10/28 04:59:08;;;;;;;10.23;4.60;;;12.60;99.90;;;;;;5032450;28;20030;-64
2022/10/28 05:01:34;;;;;;;7.47;3.47;;;12.70;99.90;;;;;;5031852;28;20747;-60
2022/10/28 05:04:00;;;;;;;7.25;4.03;;;12.70;99.90;;;;;;5029549;28;20021;-66
2022/10/28 05:06:25;;;;;;;8.18;4.05;;;12.60;99.90;;;;;;5031554;28;20041;-63
2022/10/28 05:08:51;;;;;;;7.28;4.10;;;12.60;99.90;;;;;;5033253;28;20109;-62
2022/10/28 05:11:16;;;;;;;6.22;3.50;;;12.60;99.90;;;;;;5031615;28;20040;-61
2022/10/28 05:13:42;;;;;;;6.45;3.92;;;12.60;99.90;;;;;;5032851;28;20075;-61
2022/10/28 05:16:08;;;;;;;5.80;3.28;;;12.60;99.90;;;;;;5032974;28;20058;-61
2022/10/28 05:18:33;;;;;;;7.63;3.78;;;12.50;99.90;;;;;;5033002;28;20120;-62
2022/10/28 05:20:59;;;;;;;5.93;3.53;;;12.50;99.90;;;;;;5032591;28;20029;-61
2022/10/28 05:23:24;;;;;;;7.90;3.60;;;12.40;99.90;;;;;;5032603;28;20044;-60
2022/10/28 05:25:50;;;;;;;6.30;3.80;;;12.40;99.90;;;;;;5033034;28;20025;-61
2022/10/28 05:28:17;;;;;;;5.63;3.10;;;12.40;99.90;;;;;;5031598;28;20072;-60
2022/10/28 05:30:43;;;;;;;6.03;3.22;;;12.40;99.90;;;;;;5033132;28;20041;-61
2022/10/28 05:33:10;;;;;;;7.40;3.30;;;12.40;99.90;;;;;;5032918;28;20032;-61
2022/10/28 05:35:36;;;;;;;5.97;3.22;;;12.40;99.90;;;;;;5031849;28;20052;-60
2022/10/28 05:38:02;;;;;;;6.05;3.58;;;12.30;99.90;;;;;;5032761;28;20060;-60
2022/10/28 05:40:28;;;;;;;6.35;3.22;;;12.30;99.90;;;;;;5032391;28;20063;-60
2022/10/28 05:42:54;;;;;;;5.85;3.10;;;12.30;99.90;;;;;;5032454;28;20060;-60
2022/10/28 05:45:19;;;;;;;6.55;3.20;;;12.30;99.90;;;;;;5032100;28;20116;-60
2022/10/28 05:47:46;;;;;;;6.10;3.42;;;12.30;99.90;;;;;;5030315;28;20041;-61
2022/10/28 05:50:14;;;;;;;9.52;3.53;;;12.30;99.90;;;;;;5032385;28;20034;-60
2022/10/28 05:52:39;;;;;;;5.35;3.22;;;12.30;99.90;;;;;;5032754;28;20029;-61
2022/10/28 05:55:06;;;;;;;6.57;3.42;;;12.30;99.90;;;;;;5032418;28;20419;-60
2022/10/28 05:57:34;;;;;;;5.78;3.20;;;12.30;99.90;;;;;;5031954;28;20022;-61
2022/10/28 06:00:01;;;;;;;6.10;2.55;;;12.20;99.90;;;;;;5036325;28;20018;-60
2022/10/28 06:02:26;;;;;;;4.90;2.95;;;12.20;99.90;;;;;;5037594;28;20474;-60
2022/10/28 06:04:52;;;;;;;5.93;2.92;;;12.20;99.90;;;;;;5032995;28;20028;-60
2022/10/28 06:07:17;;;;;;;4.95;3.10;;;12.20;99.90;;;;;;5031550;28;20040;-60
2022/10/28 06:09:43;;;;;;;10.02;4.15;;;12.20;99.90;;;;;;5029141;28;20390;-62
2022/10/28 06:12:08;;;;;;;10.00;4.68;;;12.20;99.90;;;;;;5032641;28;20423;-61
2022/10/28 06:14:34;;;;;;;8.15;4.35;;;12.20;99.90;;;;;;5031018;28;20621;-62
2022/10/28 06:16:59;;;;;;;7.80;4.85;;;12.10;99.90;;;;;;5031579;28;20434;-62
2022/10/28 06:19:25;;;;;;;7.65;4.97;;;12.10;99.90;;;;;;5030505;28;20034;-66
2022/10/28 06:21:50;;;;;;;8.07;4.65;;;12.10;99.90;;;;;;5031289;28;20014;-61
2022/10/28 06:24:16;;;;;;;6.95;3.72;;;12.10;99.90;;;;;;5030946;28;20121;-60
2022/10/28 06:26:42;;;;;;;6.63;3.83;;;12.10;99.90;;;;;;5030770;28;20100;-60
2022/10/28 06:29:11;;;;;;;7.10;3.67;;;12.10;99.90;;;;;;5031476;28;20083;-60
2022/10/28 06:31:41;;;;;;;6.43;3.97;;;12.10;99.90;;;;;;5031065;28;20509;-61
2022/10/28 06:34:08;;;;;;;7.93;3.65;;;12.10;99.90;;;;;;5031459;28;20026;-60
2022/10/28 06:36:34;;;;;;;5.93;3.67;;;12.10;99.90;;;;;;5031307;28;20443;-60
2022/10/28 06:38:59;;;;;;;8.95;4.40;;;12.20;99.90;;;;;;5031263;28;20029;-60
2022/10/28 06:41:25;;;;;;;7.22;3.92;;;12.20;99.90;;;;;;5031260;28;20417;-60
2022/10/28 06:43:50;;;;;;;7.32;3.90;;;12.30;99.90;;;;;;5031526;28;20034;-60
2022/10/28 06:46:16;;;;;;;8.07;4.20;;;12.30;99.90;;;;;;5030874;28;20103;-60
2022/10/28 06:48:42;;;;;;;8.77;3.95;;;12.30;99.90;;;;;;5031519;28;20017;-61
2022/10/28 06:51:07;;;;;;;8.25;3.85;;;12.30;99.90;;;;;;5030585;28;20052;-60
2022/10/28 06:53:33;;;;;;;9.27;3.80;;;12.30;99.90;;;;;;5031093;28;20025;-61
2022/10/28 06:55:58;;;;;;;8.13;3.88;;;12.20;99.90;;;;;;5031230;28;20029;-60
2022/10/28 06:58:25;;;;;;;7.30;3.88;;;12.20;99.90;;;;;;5030688;28;20013;-60
2022/10/28 07:00:51;;;;;;;8.35;4.20;;;12.30;99.90;;;;;;5030991;28;20025;-64
2022/10/28 07:03:18;;;;;;;8.00;4.18;;;12.30;99.90;;;;;;5028580;28;20021;-61
2022/10/28 07:05:44;;;;;;;8.52;4.43;;;12.30;99.90;;;;;;5030797;28;20025;-60
2022/10/28 07:08:10;;;;;;;6.63;4.45;;;12.30;99.90;;;;;;5031057;28;20018;-60
2022/10/28 07:10:36;;;;;;;9.93;4.90;;;12.40;99.90;;;;;;5030850;28;20036;-61
2022/10/28 07:13:02;;;;;;;8.05;4.63;;;12.40;99.90;;;;;;5030313;28;20083;-62
2022/10/28 07:15:27;;;;;;;10.38;5.25;;;12.50;99.90;;;;;;5030802;28;20108;-60
2022/10/28 07:17:54;;;;;;;7.32;5.18;;;12.50;99.90;;;;;;5031230;28;20041;-64
2022/10/28 07:20:20;;;;;;;8.20;4.72;;;12.60;99.90;;;;;;5027674;28;20022;-62
2022/10/28 07:22:46;;;;;;;12.20;5.43;;;12.60;99.90;;;;;;5031084;28;20021;-60
2022/10/28 07:25:11;;;;;;;8.27;4.82;;;12.70;99.90;;;;;;5030556;28;20382;-60
2022/10/28 07:27:37;;;;;;;9.95;4.97;;;12.80;99.90;;;;;;5029053;28;20482;-60
2022/10/28 07:30:03;;;;;;;8.82;3.88;;;12.90;99.90;;;;;;5029870;28;20076;-62
2022/10/28 07:32:32;;;;;;;9.88;4.28;;;12.90;99.90;;;;;;5026640;28;20076;-60
2022/10/28 07:34:57;;;;;;;8.95;3.80;;;13.00;99.90;;;;;;5030311;28;20084;-60
2022/10/28 07:37:23;;;;;;;8.63;5.00;;;13.00;99.90;;;;;;5030023;28;20049;-61
2022/10/28 07:39:49;;;;;;;10.02;4.88;;;13.10;99.90;;;;;;5030608;28;20461;-60
2022/10/28 07:42:14;;;;;;;10.68;5.25;;;13.10;99.90;;;;;;5029080;28;20112;-60
2022/10/28 07:44:40;;;;;;;13.52;7.10;;;13.10;99.90;;;;;;5030137;28;20025;-61
2022/10/28 07:47:05;;;;;;;10.82;6.63;;;13.20;99.90;;;;;;5030719;28;20026;-61
2022/10/28 07:49:31;;;;;;;10.05;6.45;;;13.30;99.90;;;;;;5029420;28;20033;-60
2022/10/28 07:51:57;;;;;;;12.02;5.90;;;13.30;99.90;;;;;;5030619;28;20026;-60
2022/10/28 07:54:22;;;;;;;9.93;5.38;;;13.30;99.90;;;;;;5029164;28;20022;-60
2022/10/28 07:56:48;;;;;;;7.13;4.88;;;13.40;99.90;;;;;;5030603;28;20022;-60
2022/10/28 07:59:13;;;;;;;9.70;4.50;;;13.50;99.90;;;;;;5029995;28;20017;-62
2022/10/28 08:01:39;;;;;;;8.48;4.50;;;13.50;99.90;;;;;;5030256;28;20504;-60
2022/10/28 08:04:04;;;;;;;11.10;4.85;;;13.50;99.90;;;;;;5028091;28;20025;-60
2022/10/28 08:06:30;;;;;;;8.73;4.80;;;13.60;99.90;;;;;;5036668;28;20152;-64
2022/10/28 08:08:58;;;;;;;8.68;4.70;;;13.70;99.90;;;;;;5034071;28;20080;-60
2022/10/28 08:11:24;;;;;;;10.77;4.70;;;13.70;99.90;;;;;;5031184;28;20081;-61
2022/10/28 08:13:50;;;;;;;10.73;5.18;;;13.70;99.90;;;;;;5033627;28;20061;-61
2022/10/28 08:16:16;;;;;;;11.05;7.03;;;13.70;99.90;;;;;;5032318;28;20494;-61
2022/10/28 08:18:42;;;;;;;13.93;8.63;;;13.80;99.90;;;;;;5034301;28;20021;-62
2022/10/28 08:21:09;;;;;;;14.18;7.57;;;13.90;99.90;;;;;;5034342;28;20021;-60
2022/10/28 08:23:35;;;;;;;14.43;7.10;;;14.00;99.90;;;;;;5033326;28;20470;-60
2022/10/28 08:26:01;;;;;;;11.38;6.07;;;14.10;99.90;;;;;;5030191;28;20017;-61
2022/10/28 08:28:27;;;;;;;12.50;7.72;;;14.30;99.90;;;;;;5030203;28;20071;-60
2022/10/28 08:30:58;;;;;;;13.60;6.82;;;14.40;99.90;;;;;;5032621;28;20057;-61
2022/10/28 08:33:23;;;;;;;11.53;6.57;;;14.50;99.90;;;;;;5034121;28;20029;-60
2022/10/28 08:35:50;;;;;;;13.38;5.82;;;14.60;99.90;;;;;;5034034;28;20025;-61
2022/10/28 08:38:16;;;;;;;10.13;5.72;;;14.80;99.90;;;;;;5031674;28;20108;-60
2022/10/28 08:41:21;;;;;;;9.48;5.82;;;14.90;99.90;;;;;;5033420;28;20112;-62
2022/10/28 08:43:58;;;;;;;10.68;6.60;;;15.10;99.90;;;;;;5029252;28;20524;-60
2022/10/28 08:47:00;;;;;;;15.52;8.30;;;15.30;99.90;;;;;;5032481;28;20561;-65
2022/10/28 08:49:28;;;;;;;22.02;13.88;;;15.40;99.90;;;;;;5015501;28;20124;-61
2022/10/28 08:52:01;;;;;;;15.75;9.52;;;15.50;99.90;;;;;;5032050;28;20017;-60
2022/10/28 08:54:36;;;;;;;18.13;10.30;;;15.60;99.90;;;;;;5024284;28;20029;-60
2022/10/28 08:57:07;;;;;;;14.32;6.07;;;15.70;99.90;;;;;;5030692;28;20036;-58
2022/10/28 08:59:39;;;;;;;9.05;6.05;;;15.70;99.90;;;;;;5034132;28;20021;-57
2022/10/28 09:02:20;;;;;;;12.48;6.15;;;15.80;99.90;;;;;;5025020;28;20036;-59
2022/10/28 09:04:50;;;;;;;12.88;7.32;;;15.90;99.90;;;;;;5030631;28;20022;-59
2022/10/28 09:07:17;;;;;;;17.13;7.18;;;16.00;99.90;;;;;;5032180;28;20017;-59
2022/10/28 09:09:44;;;;;;;13.35;9.48;;;16.10;99.90;;;;;;5032268;28;20049;-59
2022/10/28 09:12:35;;;;;;;16.00;9.10;;;16.30;99.90;;;;;;5031362;28;20056;-59
2022/10/28 09:15:19;;;;;;;;;;;16.50;99.90;;;;;;5031519;28;20482;-58
2022/10/28 09:17:51;;;;;;;16.02;9.30;;;16.60;99.90;;;;;;5033964;28;19905;-59
2022/10/28 09:20:22;;;;;;;18.70;9.68;;;16.80;99.90;;;;;;5032321;28;20029;-59
2022/10/28 09:22:57;;;;;;;12.30;7.97;;;16.90;99.90;;;;;;5033775;28;20482;-60
2022/10/28 09:25:35;;;;;;;16.05;7.95;;;17.00;99.90;;;;;;5032282;28;20025;-58
2022/10/28 09:28:35;;;;;;;19.08;10.05;;;17.20;99.90;;;;;;5032823;28;20029;-59
2022/10/28 09:31:29;;;;;;;14.05;6.78;;;17.30;99.90;;;;;;5031532;28;20040;-58
2022/10/28 09:34:00;;;;;;;21.63;10.52;;;17.40;99.90;;;;;;5025960;28;20112;-59
2022/10/28 09:36:35;;;;;;;17.10;8.95;;;17.50;99.90;;;;;;5026632;28;20022;-62
2022/10/28 09:39:03;;;;;;;18.75;7.15;;;17.70;99.90;;;;;;5033108;28;20045;-60
2022/10/28 09:41:40;;;;;;;16.33;7.70;;;17.90;99.90;;;;;;5031252;28;20482;-60
2022/10/28 09:44:31;;;;;;;16.80;8.27;;;18.00;99.90;;;;;;5034161;28;20060;-59
2022/10/28 09:47:00;;;;;;;20.50;9.63;;;18.10;99.90;;;;;;5031911;28;20491;-59
2022/10/28 09:49:36;;;;;;;15.90;7.93;;;18.20;99.90;;;;;;5034027;28;20043;-58
2022/10/28 09:52:18;;;;;;;14.57;6.95;;;18.30;99.90;;;;;;5033349;28;20101;-60
2022/10/28 09:54:48;;;;;;;10.70;6.00;;;18.40;99.90;;;;;;5033961;28;20022;-59
2022/10/28 09:57:14;;;;;;;11.85;5.63;;;18.50;99.90;;;;;;5032203;28;20025;-60
2022/10/28 09:59:40;;;;;;;10.57;6.10;;;18.60;99.90;;;;;;5033441;28;20026;-59
2022/10/28 10:02:26;;;;;;;13.40;6.28;;;18.70;99.90;;;;;;5032220;28;20375;-60
2022/10/28 10:04:52;;;;;;;10.75;5.78;;;18.80;99.90;;;;;;5029735;28;20041;-59
2022/10/28 10:07:31;;;;;;;11.90;6.30;;;18.90;99.90;;;;;;5033176;28;20497;-60
2022/10/28 10:09:59;;;;;;;14.05;6.57;;;19.00;99.90;;;;;;5032859;28;20034;-61
2022/10/28 10:12:26;;;;;;;16.55;6.85;;;19.10;99.90;;;;;;5042843;28;20025;-61
2022/10/28 10:14:55;;;;;;;13.77;7.40;;;19.20;99.90;;;;;;5034461;28;20117;-62
2022/10/28 10:17:26;;;;;;;10.82;5.53;;;19.20;99.90;;;;;;5032273;28;20021;-62
2022/10/28 10:20:05;;;;;;;13.70;6.22;;;19.30;99.90;;;;;;5033792;28;20033;-63
2022/10/28 10:22:36;;;;;;;10.43;5.65;;;19.30;99.90;;;;;;5033344;28;20029;-59
2022/10/28 10:25:24;;;;;;;11.48;5.53;;;19.40;99.90;;;;;;5032173;28;20057;-59
2022/10/28 10:28:15;;;;;;;15.23;6.20;;;19.40;99.90;;;;;;5033407;28;20080;-62
2022/10/28 10:30:48;;;;;;;12.85;5.50;;;19.50;99.90;;;;;;5032587;28;20029;-63
2022/10/28 10:33:21;;;;;;;12.90;5.82;;;19.50;99.90;;;;;;5033308;28;20068;-61
2022/10/28 10:35:58;;;;;;;13.40;5.20;;;19.60;99.90;;;;;;5015271;28;20112;-62
2022/10/28 10:38:25;;;;;;;14.00;5.75;;;19.60;99.90;;;;;;5032613;28;20029;-61
2022/10/28 10:40:52;;;;;;;11.82;6.20;;;19.60;99.90;;;;;;5033390;28;20025;-62
2022/10/28 10:43:17;;;;;;;13.98;6.00;;;19.60;99.90;;;;;;5032418;28;20025;-63
2022/10/28 10:45:58;;;;;;;15.50;6.15;;;19.60;99.90;;;;;;5032669;28;20060;-65
2022/10/28 10:48:23;;;;;;;;;;;19.60;99.90;;;;;;5033692;28;20217;-63
2022/10/28 10:50:50;;;;;;;14.60;6.43;;;19.60;99.90;;;;;;5031559;28;20027;-62
2022/10/28 10:53:27;;;;;;;13.63;6.47;;;19.60;99.90;;;;;;5033956;28;20366;-62
2022/10/28 10:56:01;;;;;;;13.23;6.30;;;19.60;99.90;;;;;;5033414;28;20033;-63
2022/10/28 10:58:31;;;;;;;13.88;7.00;;;19.60;99.90;;;;;;5032466;28;20465;-66
2022/10/28 11:00:59;;;;;;;12.85;5.90;;;19.60;99.90;;;;;;5030766;28;20033;-62
2022/10/28 11:03:35;;;;;;;14.70;6.78;;;19.60;99.90;;;;;;5032738;28;20021;-64
2022/10/28 11:06:02;;;;;;;15.55;5.72;;;19.70;99.90;;;;;;5032674;28;20500;-61
2022/10/28 11:08:37;;;;;;;12.07;5.88;;;19.70;99.90;;;;;;5033731;28;20026;-61
2022/10/28 11:11:21;;;;;;;15.48;5.82;;;19.70;99.90;;;;;;5032498;28;20033;-61
2022/10/28 11:13:48;;;;;;;12.55;5.68;;;19.80;99.90;;;;;;5033514;28;20493;-61
2022/10/28 11:16:22;;;;;;;11.77;5.50;;;19.80;99.90;;;;;;5033432;28;20112;-61
2022/10/28 11:18:51;;;;;;;13.38;5.80;;;19.80;99.90;;;;;;5031287;28;20052;-60
2022/10/28 11:21:56;;;;;;;12.52;5.65;;;19.90;99.90;;;;;;5032333;28;20104;-62
2022/10/28 11:25:08;;;;;;;10.15;5.45;;;19.90;99.90;;;;;;5032004;28;20500;-62
2022/10/28 11:28:13;;;;;;;12.38;4.57;;;20.00;99.90;;;;;;5003831;28;20482;-61
2022/10/28 11:31:13;;;;;;;10.18;5.20;;;20.10;99.90;;;;;;5017460;28;20046;-61
2022/10/28 11:33:51;;;;;;;10.70;5.18;;;20.20;99.90;;;;;;5032138;28;20026;-60
2022/10/28 11:36:39;;;;;;;13.40;6.22;;;20.30;99.90;;;;;;5032558;28;20044;-62
2022/10/28 11:39:18;;;;;;;14.20;6.03;;;20.40;99.80;;;;;;5029999;28;20493;-63
2022/10/28 11:42:06;;;;;;;12.00;5.10;;;20.50;99.50;;;;;;5030981;28;20034;-64
2022/10/28 11:45:14;;;;;;;12.50;6.05;;;20.60;99.50;;;;;;5031800;28;20041;-63
2022/10/28 11:47:54;;;;;;;10.10;5.05;;;20.60;99.00;;;;;;5003965;28;20049;-60
2022/10/28 11:50:41;;;;;;;10.10;5.18;;;20.70;98.90;;;;;;5019062;28;20109;-62
2022/10/28 11:53:24;;;;;;;10.70;5.13;;;20.80;98.60;;;;;;5030977;28;20041;-60
2022/10/28 11:55:59;;;;;;;12.63;4.75;;;20.90;98.50;;;;;;5031659;28;20088;-60
2022/10/28 11:58:32;;;;;;;10.00;5.05;;;21.00;98.10;;;;;;5031753;28;20044;-62
2022/10/28 12:01:24;;;;;;;9.73;3.58;;;21.00;97.70;;;;;;5031068;28;20049;-61
2022/10/28 12:04:13;;;;;;;9.73;3.72;;;21.10;97.30;;;;;;5030896;28;20029;-62
2022/10/28 12:06:55;;;;;;;8.20;4.00;;;21.20;97.10;;;;;;5032086;28;20545;-61
2022/10/28 12:09:39;;;;;;;9.27;3.95;;;21.20;96.90;;;;;;5031531;28;20389;-61
2022/10/28 12:12:29;;;;;;;10.63;4.85;;;21.30;96.70;;;;;;5027845;28;20424;-63
2022/10/28 12:15:14;;;;;;;10.10;4.28;;;21.40;96.10;;;;;;5032648;28;20038;-60
2022/10/28 12:18:05;;;;;;;10.35;3.40;;;21.50;96.00;;;;;;5016140;28;20108;-67
2022/10/28 12:20:39;;;;;;;10.15;3.40;;;21.60;96.00;;;;;;5011564;28;20022;-67
2022/10/28 12:23:11;;;;;;;7.30;3.95;;;21.60;95.80;;;;;;5010262;28;20034;-66
2022/10/28 12:25:40;;;;;;;7.45;3.47;;;21.60;95.70;;;;;;5012214;28;20087;-64
2022/10/28 12:28:29;;;;;;;6.55;3.22;;;21.60;95.50;;;;;;5012201;28;20022;-66
2022/10/28 12:30:56;;;;;;;12.00;4.40;;;21.60;95.10;;;;;;5012445;28;20034;-64
2022/10/28 12:33:37;;;;;;;7.63;3.63;;;21.70;94.70;;;;;;5011926;28;20088;-65
2022/10/28 12:36:02;;;;;;;7.90;3.60;;;21.70;94.90;;;;;;5011996;28;20479;-66
2022/10/28 12:38:35;;;;;;;9.55;3.75;;;21.70;95.00;;;;;;5012965;28;20037;-67
2022/10/28 12:41:09;;;;;;;7.00;3.33;;;21.80;94.80;;;;;;5011830;28;20042;-67
2022/10/28 12:44:05;;;;;;;9.13;3.17;;;21.80;95.00;;;;;;5012657;28;20026;-67
2022/10/28 12:47:06;;;;;;;10.25;3.88;;;21.90;94.60;;;;;;5010419;28;20046;-66
2022/10/28 12:49:50;;;;;;;11.50;3.60;;;21.90;93.50;;;;;;5012659;28;20037;-67
2022/10/28 12:52:46;;;;;;;9.65;4.05;;;21.90;94.00;;;;;;5012661;28;20022;-67
2022/10/28 12:55:27;;;;;;;9.98;4.30;;;22.00;93.80;;;;;;5032086;28;20030;-68
2022/10/28 12:58:26;;;;;;;8.70;3.20;;;22.00;93.70;;;;;;5031070;28;20091;-65
2022/10/28 13:00:59;;;;;;;10.30;3.50;;;22.10;93.50;;;;;;5035371;28;20354;-64
2022/10/28 13:03:25;;;;;;;8.85;3.53;;;22.10;93.20;;;;;;5035784;28;20108;-67
2022/10/28 13:05:56;;;;;;;9.95;3.90;;;22.00;93.20;;;;;;5034882;28;20109;-67
2022/10/28 13:08:53;;;;;;;8.43;3.28;;;22.00;93.00;;;;;;5035628;28;20079;-60